sensor_id;sensor_type;location;lat;lon;timestamp;pressure;altitude;pressure_sealevel;temperature;humidity
29379;BME280;16362;47.202;15.258;2023-01-30T00:01:35;96508.19;;;-4.47;100.00
29379;BME280;16362;47.202;15.258;2023-01-30T00:04:02;96499.63;;;-4.49;100.00
29379;BME280;16362;47.202;15.258;2023-01-30T00:06:29;96498.00;;;-4.51;100.00
29379;BME280;16362;47.202;15.258;2023-01-30T00:08:58;96499.16;;;-4.57;100.00
29379;BME280;16362;47.202;15.258;2023-01-30T00:11:24;96486.97;;;-4.57;100.00
29379;BME280;16362;47.202;15.258;2023-01-30T00:13:53;96489.81;;;-4.61;100.00
29379;BME280;16362;47.202;15.258;2023-01-30T00:16:20;96483.81;;;-4.63;100.00
29379;BME280;16362;47.202;15.258;2023-01-30T00:18:47;96477.84;;;-4.65;100.00
29379;BME280;16362;47.202;15.258;2023-01-30T00:21:14;96476.09;;;-4.65;100.00
29379;BME280;16362;47.202;15.258;2023-01-30T00:23:40;96478.97;;;-4.71;100.00
29379;BME280;16362;47.202;15.258;2023-01-30T00:26:07;96480.03;;;-4.75;100.00
29379;BME280;16362;47.202;15.258;2023-01-30T00:28:35;96473.94;;;-4.74;100.00
29379;BME280;16362;47.202;15.258;2023-01-30T00:31:01;96481.91;;;-4.77;100.00
29379;BME280;16362;47.202;15.258;2023-01-30T00:33:28;96481.19;;;-4.81;100.00
29379;BME280;16362;47.202;15.258;2023-01-30T00:35:55;96475.38;;;-4.86;100.00
29379;BME280;16362;47.202;15.258;2023-01-30T00:38:24;96474.38;;;-4.83;100.00
29379;BME280;16362;47.202;15.258;2023-01-30T00:40:51;96473.69;;;-4.87;100.00
29379;BME280;16362;47.202;15.258;2023-01-30T00:43:18;96476.50;;;-4.92;100.00
29379;BME280;16362;47.202;15.258;2023-01-30T00:46:04;96477.28;;;-4.89;100.00
29379;BME280;16362;47.202;15.258;2023-01-30T00:48:53;96472.09;;;-4.89;100.00
29379;BME280;16362;47.202;15.258;2023-01-30T00:51:20;96466.09;;;-4.92;100.00
29379;BME280;16362;47.202;15.258;2023-01-30T00:53:46;96463.56;;;-4.93;100.00
29379;BME280;16362;47.202;15.258;2023-01-30T00:56:13;96470.41;;;-4.91;100.00
29379;BME280;16362;47.202;15.258;2023-01-30T00:58:39;96467.00;;;-4.93;100.00
29379;BME280;16362;47.202;15.258;2023-01-30T01:01:06;96468.69;;;-4.92;100.00
29379;BME280;16362;47.202;15.258;2023-01-30T01:03:32;96469.69;;;-4.94;100.00
29379;BME280;16362;47.202;15.258;2023-01-30T01:05:59;96471.63;;;-4.98;100.00
29379;BME280;16362;47.202;15.258;2023-01-30T01:08:26;96467.47;;;-5.02;100.00
29379;BME280;16362;47.202;15.258;2023-01-30T01:10:52;96464.91;;;-5.03;100.00
29379;BME280;16362;47.202;15.258;2023-01-30T01:13:19;96465.88;;;-5.04;100.00
29379;BME280;16362;47.202;15.258;2023-01-30T01:15:45;96461.66;;;-5.07;100.00
29379;BME280;16362;47.202;15.258;2023-01-30T01:18:14;96466.78;;;-5.05;100.00
29379;BME280;16362;47.202;15.258;2023-01-30T01:20:40;96459.66;;;-5.02;100.00
29379;BME280;16362;47.202;15.258;2023-01-30T01:23:08;96465.91;;;-5.06;100.00
29379;BME280;16362;47.202;15.258;2023-01-30T01:25:35;96457.19;;;-5.05;100.00
29379;BME280;16362;47.202;15.258;2023-01-30T01:28:02;96458.09;;;-5.06;100.00
29379;BME280;16362;47.202;15.258;2023-01-30T01:30:28;96447.84;;;-5.09;100.00
29379;BME280;16362;47.202;15.258;2023-01-30T01:32:55;96455.66;;;-5.09;100.00
29379;BME280;16362;47.202;15.258;2023-01-30T01:35:22;96446.31;;;-5.13;100.00
29379;BME280;16362;47.202;15.258;2023-01-30T01:37:51;96442.00;;;-5.14;100.00
29379;BME280;16362;47.202;15.258;2023-01-30T01:40:18;96448.00;;;-5.12;100.00
29379;BME280;16362;47.202;15.258;2023-01-30T01:43:16;96445.31;;;-5.11;100.00
29379;BME280;16362;47.202;15.258;2023-01-30T01:45:42;96433.53;;;-5.18;100.00
29379;BME280;16362;47.202;15.258;2023-01-30T01:48:11;96442.25;;;-5.19;100.00
29379;BME280;16362;47.202;15.258;2023-01-30T01:50:41;96429.16;;;-5.17;100.00
29379;BME280;16362;47.202;15.258;2023-01-30T01:53:09;96432.06;;;-5.23;100.00
29379;BME280;16362;47.202;15.258;2023-01-30T01:55:37;96420.44;;;-5.16;100.00
29379;BME280;16362;47.202;15.258;2023-01-30T01:58:14;96424.28;;;-5.23;100.00
29379;BME280;16362;47.202;15.258;2023-01-30T02:00:42;96415.25;;;-5.16;100.00
29379;BME280;16362;47.202;15.258;2023-01-30T02:03:10;96418.00;;;-5.19;100.00
29379;BME280;16362;47.202;15.258;2023-01-30T02:05:39;96419.81;;;-5.21;100.00
29379;BME280;16362;47.202;15.258;2023-01-30T02:08:14;96413.63;;;-5.19;100.00
29379;BME280;16362;47.202;15.258;2023-01-30T02:10:58;96406.66;;;-5.18;100.00
29379;BME280;16362;47.202;15.258;2023-01-30T02:16:58;96412.84;;;-5.21;100.00
29379;BME280;16362;47.202;15.258;2023-01-30T02:24:34;96400.16;;;-5.27;100.00
29379;BME280;16362;47.202;15.258;2023-01-30T02:32:20;96391.09;;;-5.37;100.00
29379;BME280;16362;47.202;15.258;2023-01-30T02:35:03;96393.59;;;-5.36;100.00
29379;BME280;16362;47.202;15.258;2023-01-30T02:47:31;96375.94;;;-5.29;100.00
29379;BME280;16362;47.202;15.258;2023-01-30T02:50:01;96370.00;;;-5.31;100.00
29379;BME280;16362;47.202;15.258;2023-01-30T02:52:30;96374.06;;;-5.26;100.00
29379;BME280;16362;47.202;15.258;2023-01-30T02:54:59;96379.41;;;-5.29;100.00
29379;BME280;16362;47.202;15.258;2023-01-30T02:57:25;96369.13;;;-5.32;100.00
29379;BME280;16362;47.202;15.258;2023-01-30T02:59:56;96373.66;;;-5.35;100.00
29379;BME280;16362;47.202;15.258;2023-01-30T03:12:36;96369.13;;;-5.32;100.00
29379;BME280;16362;47.202;15.258;2023-01-30T03:17:31;96350.31;;;-5.37;100.00
29379;BME280;16362;47.202;15.258;2023-01-30T03:19:58;96346.03;;;-5.38;100.00
29379;BME280;16362;47.202;15.258;2023-01-30T03:22:25;96351.44;;;-5.43;100.00
29379;BME280;16362;47.202;15.258;2023-01-30T03:24:51;96347.94;;;-5.42;100.00
29379;BME280;16362;47.202;15.258;2023-01-30T03:27:19;96357.59;;;-5.44;100.00
29379;BME280;16362;47.202;15.258;2023-01-30T03:29:46;96347.09;;;-5.42;100.00
29379;BME280;16362;47.202;15.258;2023-01-30T03:32:13;96360.09;;;-5.42;100.00
29379;BME280;16362;47.202;15.258;2023-01-30T03:34:39;96356.66;;;-5.43;100.00
29379;BME280;16362;47.202;15.258;2023-01-30T03:37:07;96352.31;;;-5.42;100.00
29379;BME280;16362;47.202;15.258;2023-01-30T03:39:33;96345.41;;;-5.43;100.00
29379;BME280;16362;47.202;15.258;2023-01-30T03:42:00;96352.47;;;-5.45;100.00
29379;BME280;16362;47.202;15.258;2023-01-30T03:44:27;96338.50;;;-5.44;100.00
29379;BME280;16362;47.202;15.258;2023-01-30T03:46:53;96336.84;;;-5.45;100.00
29379;BME280;16362;47.202;15.258;2023-01-30T03:49:20;96337.06;;;-5.50;100.00
29379;BME280;16362;47.202;15.258;2023-01-30T03:51:46;96332.63;;;-5.48;100.00
29379;BME280;16362;47.202;15.258;2023-01-30T03:54:13;96335.84;;;-5.43;100.00
29379;BME280;16362;47.202;15.258;2023-01-30T03:56:39;96325.03;;;-5.52;100.00
29379;BME280;16362;47.202;15.258;2023-01-30T03:59:06;96328.63;;;-5.55;100.00
29379;BME280;16362;47.202;15.258;2023-01-30T04:01:32;96329.69;;;-5.59;100.00
29379;BME280;16362;47.202;15.258;2023-01-30T04:03:59;96337.13;;;-5.51;100.00
29379;BME280;16362;47.202;15.258;2023-01-30T04:06:26;96336.81;;;-5.63;100.00
29379;BME280;16362;47.202;15.258;2023-01-30T04:08:52;96331.00;;;-5.68;100.00
29379;BME280;16362;47.202;15.258;2023-01-30T04:11:19;96325.34;;;-5.59;100.00
29379;BME280;16362;47.202;15.258;2023-01-30T04:13:46;96313.25;;;-5.60;100.00
29379;BME280;16362;47.202;15.258;2023-01-30T04:16:17;96300.50;;;-5.47;100.00
29379;BME280;16362;47.202;15.258;2023-01-30T04:18:44;96298.38;;;-5.56;100.00
29379;BME280;16362;47.202;15.258;2023-01-30T04:21:11;96305.47;;;-5.60;100.00
29379;BME280;16362;47.202;15.258;2023-01-30T04:23:38;96299.03;;;-5.52;100.00
29379;BME280;16362;47.202;15.258;2023-01-30T04:26:05;96301.50;;;-5.67;100.00
29379;BME280;16362;47.202;15.258;2023-01-30T04:28:32;96310.34;;;-5.71;100.00
29379;BME280;16362;47.202;15.258;2023-01-30T04:30:59;96306.81;;;-5.70;100.00
29379;BME280;16362;47.202;15.258;2023-01-30T04:33:26;96294.78;;;-5.72;100.00
29379;BME280;16362;47.202;15.258;2023-01-30T04:35:56;96286.09;;;-5.71;100.00
29379;BME280;16362;47.202;15.258;2023-01-30T04:38:24;96286.94;;;-5.71;100.00
29379;BME280;16362;47.202;15.258;2023-01-30T04:40:51;96293.06;;;-5.72;100.00
29379;BME280;16362;47.202;15.258;2023-01-30T04:43:18;96291.91;;;-5.66;100.00
29379;BME280;16362;47.202;15.258;2023-01-30T04:45:46;96288.69;;;-5.71;100.00
29379;BME280;16362;47.202;15.258;2023-01-30T04:48:13;96282.03;;;-5.77;100.00
29379;BME280;16362;47.202;15.258;2023-01-30T04:50:40;96281.22;;;-5.78;100.00
29379;BME280;16362;47.202;15.258;2023-01-30T04:53:07;96285.38;;;-5.75;100.00
29379;BME280;16362;47.202;15.258;2023-01-30T04:55:34;96278.38;;;-5.73;100.00
29379;BME280;16362;47.202;15.258;2023-01-30T04:58:01;96280.25;;;-5.77;100.00
29379;BME280;16362;47.202;15.258;2023-01-30T05:00:28;96278.38;;;-5.73;100.00
29379;BME280;16362;47.202;15.258;2023-01-30T05:02:54;96277.00;;;-5.80;100.00
29379;BME280;16362;47.202;15.258;2023-01-30T05:05:21;96265.53;;;-5.76;100.00
29379;BME280;16362;47.202;15.258;2023-01-30T05:07:48;96272.47;;;-5.77;100.00
29379;BME280;16362;47.202;15.258;2023-01-30T05:10:15;96272.25;;;-5.72;100.00
29379;BME280;16362;47.202;15.258;2023-01-30T05:12:42;96276.31;;;-5.66;100.00
29379;BME280;16362;47.202;15.258;2023-01-30T05:15:08;96280.97;;;-5.73;100.00
29379;BME280;16362;47.202;15.258;2023-01-30T05:17:35;96265.22;;;-5.70;100.00
29379;BME280;16362;47.202;15.258;2023-01-30T05:20:02;96258.72;;;-5.79;100.00
29379;BME280;16362;47.202;15.258;2023-01-30T05:22:29;96260.78;;;-5.85;100.00
29379;BME280;16362;47.202;15.258;2023-01-30T05:24:56;96261.59;;;-5.85;100.00
29379;BME280;16362;47.202;15.258;2023-01-30T05:27:22;96255.25;;;-5.79;100.00
29379;BME280;16362;47.202;15.258;2023-01-30T05:29:49;96252.91;;;-5.84;100.00
29379;BME280;16362;47.202;15.258;2023-01-30T05:32:16;96254.94;;;-5.90;100.00
29379;BME280;16362;47.202;15.258;2023-01-30T05:34:43;96264.44;;;-5.89;100.00
29379;BME280;16362;47.202;15.258;2023-01-30T05:37:10;96237.91;;;-5.79;100.00
29379;BME280;16362;47.202;15.258;2023-01-30T05:39:37;96249.66;;;-5.89;100.00
29379;BME280;16362;47.202;15.258;2023-01-30T05:42:04;96249.50;;;-5.86;100.00
29379;BME280;16362;47.202;15.258;2023-01-30T05:44:30;96244.47;;;-5.89;100.00
29379;BME280;16362;47.202;15.258;2023-01-30T05:46:57;96240.81;;;-5.85;100.00
29379;BME280;16362;47.202;15.258;2023-01-30T05:49:23;96236.31;;;-5.81;100.00
29379;BME280;16362;47.202;15.258;2023-01-30T05:51:50;96231.84;;;-5.79;100.00
29379;BME280;16362;47.202;15.258;2023-01-30T05:54:16;96230.66;;;-5.54;100.00
29379;BME280;16362;47.202;15.258;2023-01-30T05:56:43;96227.22;;;-5.55;100.00
29379;BME280;16362;47.202;15.258;2023-01-30T05:59:13;96237.22;;;-5.65;100.00
29379;BME280;16362;47.202;15.258;2023-01-30T06:01:40;96233.03;;;-5.50;100.00
29379;BME280;16362;47.202;15.258;2023-01-30T06:04:07;96233.72;;;-5.64;100.00
29379;BME280;16362;47.202;15.258;2023-01-30T06:06:33;96229.44;;;-5.65;100.00
29379;BME280;16362;47.202;15.258;2023-01-30T06:09:00;96224.31;;;-5.66;100.00
29379;BME280;16362;47.202;15.258;2023-01-30T06:11:26;96216.28;;;-5.62;100.00
29379;BME280;16362;47.202;15.258;2023-01-30T06:13:53;96202.19;;;-5.58;100.00
29379;BME280;16362;47.202;15.258;2023-01-30T06:16:20;96209.09;;;-5.56;100.00
29379;BME280;16362;47.202;15.258;2023-01-30T06:18:46;96202.91;;;-5.54;100.00
29379;BME280;16362;47.202;15.258;2023-01-30T06:21:13;96222.88;;;-5.54;100.00
29379;BME280;16362;47.202;15.258;2023-01-30T06:23:41;96231.78;;;-5.43;100.00
29379;BME280;16362;47.202;15.258;2023-01-30T06:26:08;96236.00;;;-5.40;100.00
29379;BME280;16362;47.202;15.258;2023-01-30T06:28:35;96233.66;;;-5.45;100.00
29379;BME280;16362;47.202;15.258;2023-01-30T06:31:01;96251.03;;;-5.45;100.00
29379;BME280;16362;47.202;15.258;2023-01-30T06:33:30;96242.16;;;-5.41;100.00
29379;BME280;16362;47.202;15.258;2023-01-30T06:35:57;96232.03;;;-5.30;100.00
29379;BME280;16362;47.202;15.258;2023-01-30T06:38:23;96252.13;;;-5.33;100.00
29379;BME280;16362;47.202;15.258;2023-01-30T06:40:51;96230.41;;;-5.32;100.00
29379;BME280;16362;47.202;15.258;2023-01-30T06:43:18;96239.84;;;-5.30;100.00
29379;BME280;16362;47.202;15.258;2023-01-30T06:45:44;96218.00;;;-5.10;100.00
29379;BME280;16362;47.202;15.258;2023-01-30T06:48:11;96209.19;;;-5.07;100.00
29379;BME280;16362;47.202;15.258;2023-01-30T06:50:37;96219.69;;;-5.09;100.00
29379;BME280;16362;47.202;15.258;2023-01-30T06:53:05;96204.50;;;-5.00;100.00
29379;BME280;16362;47.202;15.258;2023-01-30T06:55:32;96208.34;;;-5.08;100.00
29379;BME280;16362;47.202;15.258;2023-01-30T06:58:06;96233.44;;;-5.07;100.00
29379;BME280;16362;47.202;15.258;2023-01-30T07:00:33;96237.97;;;-5.10;100.00
29379;BME280;16362;47.202;15.258;2023-01-30T07:03:00;96243.03;;;-5.07;100.00
29379;BME280;16362;47.202;15.258;2023-01-30T07:05:27;96232.19;;;-4.99;100.00
29379;BME280;16362;47.202;15.258;2023-01-30T07:07:57;96223.38;;;-4.97;100.00
29379;BME280;16362;47.202;15.258;2023-01-30T07:10:23;96225.25;;;-4.99;100.00
29379;BME280;16362;47.202;15.258;2023-01-30T07:12:51;96228.59;;;-4.97;100.00
29379;BME280;16362;47.202;15.258;2023-01-30T07:15:18;96217.09;;;-4.93;100.00
29379;BME280;16362;47.202;15.258;2023-01-30T07:17:45;96223.50;;;-4.82;100.00
29379;BME280;16362;47.202;15.258;2023-01-30T07:20:12;96213.69;;;-4.77;100.00
29379;BME280;16362;47.202;15.258;2023-01-30T07:22:39;96212.00;;;-4.78;100.00
29379;BME280;16362;47.202;15.258;2023-01-30T07:25:05;96200.50;;;-4.74;100.00
29379;BME280;16362;47.202;15.258;2023-01-30T07:27:32;96186.22;;;-4.67;100.00
29379;BME280;16362;47.202;15.258;2023-01-30T07:29:59;96186.41;;;-4.54;100.00
29379;BME280;16362;47.202;15.258;2023-01-30T07:32:26;96176.59;;;-4.33;100.00
29379;BME280;16362;47.202;15.258;2023-01-30T07:34:52;96183.81;;;-4.38;100.00
29379;BME280;16362;47.202;15.258;2023-01-30T07:37:19;96183.31;;;-4.45;100.00
29379;BME280;16362;47.202;15.258;2023-01-30T07:39:45;96172.03;;;-4.45;100.00
29379;BME280;16362;47.202;15.258;2023-01-30T07:42:12;96183.13;;;-4.10;100.00
29379;BME280;16362;47.202;15.258;2023-01-30T07:44:38;96162.91;;;-4.06;100.00
29379;BME280;16362;47.202;15.258;2023-01-30T07:47:05;96150.97;;;-4.10;100.00
29379;BME280;16362;47.202;15.258;2023-01-30T07:49:31;96148.94;;;-4.05;100.00
29379;BME280;16362;47.202;15.258;2023-01-30T07:51:58;96148.03;;;-4.04;100.00
29379;BME280;16362;47.202;15.258;2023-01-30T07:54:25;96147.22;;;-4.04;100.00
29379;BME280;16362;47.202;15.258;2023-01-30T07:56:52;96145.25;;;-4.01;100.00
29379;BME280;16362;47.202;15.258;2023-01-30T07:59:18;96153.84;;;-3.99;100.00
29379;BME280;16362;47.202;15.258;2023-01-30T08:01:45;96151.22;;;-3.99;100.00
29379;BME280;16362;47.202;15.258;2023-01-30T08:04:11;96144.13;;;-3.97;100.00
29379;BME280;16362;47.202;15.258;2023-01-30T08:06:38;96133.38;;;-3.76;100.00
29379;BME280;16362;47.202;15.258;2023-01-30T08:09:05;96139.22;;;-3.57;100.00
29379;BME280;16362;47.202;15.258;2023-01-30T08:11:32;96141.78;;;-3.71;100.00
29379;BME280;16362;47.202;15.258;2023-01-30T08:13:58;96134.72;;;-3.69;100.00
29379;BME280;16362;47.202;15.258;2023-01-30T08:16:25;96145.88;;;-3.67;100.00
29379;BME280;16362;47.202;15.258;2023-01-30T08:18:51;96142.00;;;-3.60;100.00
29379;BME280;16362;47.202;15.258;2023-01-30T08:21:18;96135.97;;;-3.46;100.00
29379;BME280;16362;47.202;15.258;2023-01-30T08:23:44;96122.63;;;-3.41;100.00
29379;BME280;16362;47.202;15.258;2023-01-30T08:26:11;96125.25;;;-3.27;100.00
29379;BME280;16362;47.202;15.258;2023-01-30T08:28:38;96110.72;;;-3.16;100.00
29379;BME280;16362;47.202;15.258;2023-01-30T08:31:08;96112.94;;;-2.96;100.00
29379;BME280;16362;47.202;15.258;2023-01-30T08:33:35;96120.31;;;-2.88;100.00
29379;BME280;16362;47.202;15.258;2023-01-30T08:36:01;96111.69;;;-2.76;100.00
29379;BME280;16362;47.202;15.258;2023-01-30T08:38:28;96118.09;;;-2.67;100.00
29379;BME280;16362;47.202;15.258;2023-01-30T08:40:54;96118.47;;;-2.59;100.00
29379;BME280;16362;47.202;15.258;2023-01-30T08:43:23;96110.91;;;-2.49;100.00
29379;BME280;16362;47.202;15.258;2023-01-30T08:45:51;96120.56;;;-2.37;100.00
29379;BME280;16362;47.202;15.258;2023-01-30T08:48:18;96112.41;;;-2.32;100.00
29379;BME280;16362;47.202;15.258;2023-01-30T08:50:44;96107.19;;;-2.32;100.00
29379;BME280;16362;47.202;15.258;2023-01-30T08:53:11;96097.16;;;-2.25;100.00
29379;BME280;16362;47.202;15.258;2023-01-30T08:55:37;96094.72;;;-2.01;100.00
29379;BME280;16362;47.202;15.258;2023-01-30T08:58:04;96094.84;;;-2.03;100.00
29379;BME280;16362;47.202;15.258;2023-01-30T09:00:30;96089.28;;;-1.98;100.00
29379;BME280;16362;47.202;15.258;2023-01-30T09:02:57;96081.97;;;-1.93;100.00
29379;BME280;16362;47.202;15.258;2023-01-30T09:05:23;96074.03;;;-1.91;100.00
29379;BME280;16362;47.202;15.258;2023-01-30T09:07:50;96084.38;;;-1.90;100.00
29379;BME280;16362;47.202;15.258;2023-01-30T09:10:17;96069.88;;;-1.81;100.00
29379;BME280;16362;47.202;15.258;2023-01-30T09:12:44;96062.22;;;-1.71;100.00
29379;BME280;16362;47.202;15.258;2023-01-30T09:15:11;96053.88;;;-1.63;100.00
29379;BME280;16362;47.202;15.258;2023-01-30T09:17:38;96057.31;;;-1.63;100.00
29379;BME280;16362;47.202;15.258;2023-01-30T09:20:05;96054.06;;;-1.66;100.00
29379;BME280;16362;47.202;15.258;2023-01-30T09:22:32;96052.06;;;-1.63;100.00
29379;BME280;16362;47.202;15.258;2023-01-30T09:24:58;96050.63;;;-1.54;100.00
29379;BME280;16362;47.202;15.258;2023-01-30T09:27:25;96040.56;;;-1.47;100.00
29379;BME280;16362;47.202;15.258;2023-01-30T09:29:51;96048.50;;;-1.36;100.00
29379;BME280;16362;47.202;15.258;2023-01-30T09:32:18;96034.56;;;-1.24;100.00
29379;BME280;16362;47.202;15.258;2023-01-30T09:34:44;96033.16;;;-1.04;100.00
29379;BME280;16362;47.202;15.258;2023-01-30T09:37:11;96026.78;;;-0.75;100.00
29379;BME280;16362;47.202;15.258;2023-01-30T09:39:38;96029.31;;;-0.49;100.00
29379;BME280;16362;47.202;15.258;2023-01-30T09:54:50;95994.72;;;0.50;97.43
29379;BME280;16362;47.202;15.258;2023-01-30T09:57:23;95984.47;;;0.47;99.70
29379;BME280;16362;47.202;15.258;2023-01-30T10:05:24;95980.03;;;0.25;99.58
29379;BME280;16362;47.202;15.258;2023-01-30T10:08:03;95966.78;;;0.27;99.39
29379;BME280;16362;47.202;15.258;2023-01-30T10:20:46;95947.81;;;0.35;99.42
29379;BME280;16362;47.202;15.258;2023-01-30T10:28:38;95938.88;;;0.37;100.00
29379;BME280;16362;47.202;15.258;2023-01-30T10:31:10;95942.94;;;0.64;100.00
29379;BME280;16362;47.202;15.258;2023-01-30T10:36:21;95934.59;;;1.14;100.00
29379;BME280;16362;47.202;15.258;2023-01-30T10:38:49;95931.31;;;1.22;100.00
29379;BME280;16362;47.202;15.258;2023-01-30T10:43:43;95911.94;;;1.55;94.82
29379;BME280;16362;47.202;15.258;2023-01-30T10:49:12;95894.31;;;1.67;95.53
29379;BME280;16362;47.202;15.258;2023-01-30T10:54:14;95885.69;;;1.86;93.75
29379;BME280;16362;47.202;15.258;2023-01-30T11:05:20;95852.72;;;2.13;92.49
29379;BME280;16362;47.202;15.258;2023-01-30T11:07:37;95838.78;;;2.32;90.29
29379;BME280;16362;47.202;15.258;2023-01-30T11:10:09;95834.84;;;2.57;95.14
29379;BME280;16362;47.202;15.258;2023-01-30T11:12:40;95830.41;;;2.58;93.49
29379;BME280;16362;47.202;15.258;2023-01-30T11:15:06;95826.00;;;2.68;92.88
29379;BME280;16362;47.202;15.258;2023-01-30T11:17:35;95826.81;;;2.88;93.18
29379;BME280;16362;47.202;15.258;2023-01-30T11:22:43;95806.03;;;3.05;89.65
29379;BME280;16362;47.202;15.258;2023-01-30T11:25:13;95794.66;;;3.04;89.93
29379;BME280;16362;47.202;15.258;2023-01-30T11:27:42;95791.16;;;2.84;92.32
29379;BME280;16362;47.202;15.258;2023-01-30T11:30:13;95795.63;;;2.74;93.24
29379;BME280;16362;47.202;15.258;2023-01-30T11:32:46;95776.75;;;2.78;93.91
29379;BME280;16362;47.202;15.258;2023-01-30T11:37:40;95773.00;;;3.20;93.32
29379;BME280;16362;47.202;15.258;2023-01-30T11:42:44;95784.91;;;3.34;92.10
29379;BME280;16362;47.202;15.258;2023-01-30T11:45:11;95781.03;;;3.28;94.35
29379;BME280;16362;47.202;15.258;2023-01-30T11:47:47;95778.53;;;3.27;94.64
29379;BME280;16362;47.202;15.258;2023-01-30T11:50:25;95753.84;;;3.28;94.34
29379;BME280;16362;47.202;15.258;2023-01-30T11:52:56;95752.03;;;3.18;94.05
29379;BME280;16362;47.202;15.258;2023-01-30T11:55:27;95745.34;;;3.34;95.49
29379;BME280;16362;47.202;15.258;2023-01-30T11:57:55;95754.22;;;3.43;95.53
29379;BME280;16362;47.202;15.258;2023-01-30T12:00:26;95743.81;;;3.41;91.41
29379;BME280;16362;47.202;15.258;2023-01-30T12:02:54;95737.84;;;3.39;87.41
29379;BME280;16362;47.202;15.258;2023-01-30T12:05:23;95739.78;;;3.37;90.79
29379;BME280;16362;47.202;15.258;2023-01-30T12:07:51;95730.34;;;3.34;92.53
29379;BME280;16362;47.202;15.258;2023-01-30T12:12:46;95729.38;;;3.26;95.81
29379;BME280;16362;47.202;15.258;2023-01-30T12:17:51;95718.66;;;2.90;97.45
29379;BME280;16362;47.202;15.258;2023-01-30T12:25:28;95712.13;;;2.94;94.86
29379;BME280;16362;47.202;15.258;2023-01-30T12:28:02;95717.09;;;2.77;98.04
29379;BME280;16362;47.202;15.258;2023-01-30T12:30:32;95714.34;;;2.69;98.84
29379;BME280;16362;47.202;15.258;2023-01-30T12:33:02;95698.91;;;3.03;97.28
29379;BME280;16362;47.202;15.258;2023-01-30T12:35:34;95694.34;;;2.96;99.75
29379;BME280;16362;47.202;15.258;2023-01-30T12:38:07;95695.06;;;2.78;99.69
29379;BME280;16362;47.202;15.258;2023-01-30T12:40:42;95684.28;;;2.52;100.00
29379;BME280;16362;47.202;15.258;2023-01-30T12:43:21;95689.38;;;2.34;100.00
29379;BME280;16362;47.202;15.258;2023-01-30T13:07:58;95650.69;;;2.05;100.00
29379;BME280;16362;47.202;15.258;2023-01-30T13:15:24;95662.41;;;1.72;100.00
29379;BME280;16362;47.202;15.258;2023-01-30T13:23:05;95635.03;;;1.94;100.00
29379;BME280;16362;47.202;15.258;2023-01-30T13:25:37;95636.81;;;1.93;100.00
29379;BME280;16362;47.202;15.258;2023-01-30T13:28:11;95636.00;;;2.02;100.00
29379;BME280;16362;47.202;15.258;2023-01-30T13:30:39;95618.53;;;2.01;100.00
29379;BME280;16362;47.202;15.258;2023-01-30T13:33:11;95625.91;;;1.98;100.00
29379;BME280;16362;47.202;15.258;2023-01-30T13:35:44;95627.81;;;1.96;100.00
29379;BME280;16362;47.202;15.258;2023-01-30T13:38:15;95630.88;;;1.91;100.00
29379;BME280;16362;47.202;15.258;2023-01-30T13:40:43;95629.91;;;2.02;100.00
29379;BME280;16362;47.202;15.258;2023-01-30T13:43:15;95622.69;;;1.94;100.00
29379;BME280;16362;47.202;15.258;2023-01-30T13:45:44;95623.78;;;1.72;100.00
29379;BME280;16362;47.202;15.258;2023-01-30T13:53:17;95630.44;;;1.66;100.00
29379;BME280;16362;47.202;15.258;2023-01-30T13:55:55;95620.16;;;1.73;100.00
29379;BME280;16362;47.202;15.258;2023-01-30T14:01:10;95630.00;;;1.71;100.00
29379;BME280;16362;47.202;15.258;2023-01-30T14:03:41;95624.94;;;1.99;100.00
29379;BME280;16362;47.202;15.258;2023-01-30T14:06:10;95614.56;;;2.07;100.00
29379;BME280;16362;47.202;15.258;2023-01-30T14:08:39;95613.56;;;2.08;100.00
29379;BME280;16362;47.202;15.258;2023-01-30T14:13:56;95613.16;;;2.23;100.00
29379;BME280;16362;47.202;15.258;2023-01-30T14:16:37;95620.50;;;2.09;100.00
29379;BME280;16362;47.202;15.258;2023-01-30T14:22:15;95605.53;;;2.39;100.00
29379;BME280;16362;47.202;15.258;2023-01-30T14:24:43;95611.38;;;2.33;100.00
29379;BME280;16362;47.202;15.258;2023-01-30T14:32:52;95627.97;;;2.04;100.00
29379;BME280;16362;47.202;15.258;2023-01-30T14:35:21;95642.78;;;1.95;100.00
29379;BME280;16362;47.202;15.258;2023-01-30T14:38:02;95636.97;;;1.92;100.00
29379;BME280;16362;47.202;15.258;2023-01-30T14:40:30;95623.13;;;1.90;100.00
29379;BME280;16362;47.202;15.258;2023-01-30T14:45:55;95625.47;;;1.83;100.00
29379;BME280;16362;47.202;15.258;2023-01-30T14:51:10;95623.97;;;2.10;100.00
29379;BME280;16362;47.202;15.258;2023-01-30T14:56:14;95643.22;;;2.20;100.00
29379;BME280;16362;47.202;15.258;2023-01-30T14:58:54;95651.78;;;2.02;100.00
29379;BME280;16362;47.202;15.258;2023-01-30T15:01:24;95664.25;;;1.91;100.00
29379;BME280;16362;47.202;15.258;2023-01-30T15:03:51;95652.59;;;1.83;100.00
29379;BME280;16362;47.202;15.258;2023-01-30T15:06:18;95668.81;;;1.79;100.00
29379;BME280;16362;47.202;15.258;2023-01-30T15:08:45;95657.19;;;2.01;100.00
29379;BME280;16362;47.202;15.258;2023-01-30T15:11:30;95642.81;;;2.15;100.00
29379;BME280;16362;47.202;15.258;2023-01-30T15:17:04;95639.59;;;1.92;100.00
29379;BME280;16362;47.202;15.258;2023-01-30T15:19:44;95643.22;;;2.10;100.00
29379;BME280;16362;47.202;15.258;2023-01-30T15:22:18;95642.66;;;1.97;100.00
29379;BME280;16362;47.202;15.258;2023-01-30T15:27:38;95642.66;;;1.87;100.00
29379;BME280;16362;47.202;15.258;2023-01-30T15:35:51;95646.09;;;1.78;100.00
29379;BME280;16362;47.202;15.258;2023-01-30T15:40:54;95652.44;;;1.65;100.00
29379;BME280;16362;47.202;15.258;2023-01-30T15:51:24;95659.81;;;1.41;100.00
29379;BME280;16362;47.202;15.258;2023-01-30T15:53:52;95677.88;;;1.24;100.00
29379;BME280;16362;47.202;15.258;2023-01-30T15:56:22;95659.25;;;1.37;100.00
29379;BME280;16362;47.202;15.258;2023-01-30T15:58:49;95679.03;;;1.31;100.00
29379;BME280;16362;47.202;15.258;2023-01-30T16:01:17;95693.59;;;1.14;100.00